Time;durP1;ratioP1;P1;durP2;ratioP2;P2;SDS_P1;SDS_P2;PMS_P1;PMS_P2;Temp;Humidity;BMP_temperature;BMP_pressure;BME280_temperature;BME280_humidity;BME280_pressure;Samples;Min_cycle;Max_cycle;Signal;HPM_P1;HPM_P2
2024/02/19 00:01:31;;;;;;;25.92;4.68;;;;;;;12.52;63.49;102703.00;4992262;28;97004;-90
2024/02/19 00:03:57;;;;;;;34.08;4.63;;;;;;;12.52;63.28;102716.06;4977578;28;100537;-90
2024/02/19 00:06:23;;;;;;;30.35;4.72;;;;;;;12.50;63.18;102717.75;4975415;28;100548;-91
2024/02/19 00:08:52;;;;;;;36.78;4.07;;;;;;;12.49;63.41;102715.97;4973393;28;96969;-92
2024/02/19 00:11:18;;;;;;;38.58;4.38;;;;;;;12.47;63.43;102718.53;4972922;28;97054;-91
2024/02/19 00:13:45;;;;;;;28.58;4.00;;;;;;;12.48;63.47;102725.56;4994209;28;98161;-91
2024/02/19 00:16:10;;;;;;;33.88;4.03;;;;;;;12.50;63.54;102728.22;4976260;28;100407;-91
2024/02/19 00:18:36;;;;;;;30.08;3.60;;;;;;;12.50;63.65;102725.59;4975724;28;97079;-91
2024/02/19 00:21:02;;;;;;;30.05;4.47;;;;;;;12.49;63.43;102727.31;4973579;28;96915;-89
2024/02/19 00:23:28;;;;;;;33.90;3.38;;;;;;;12.50;63.53;102730.84;4974185;28;100399;-91
2024/02/19 00:25:55;;;;;;;32.83;4.32;;;;;;;12.50;63.46;102730.84;4991058;28;100664;-92
2024/02/19 00:28:20;;;;;;;36.88;4.88;;;;;;;12.49;63.49;102740.41;4975592;28;96793;-91
2024/02/19 00:30:45;;;;;;;32.17;3.88;;;;;;;12.51;63.68;102740.47;4973510;28;96967;-91
2024/02/19 00:33:11;;;;;;;30.38;3.30;;;;;;;12.51;63.54;102735.22;4992288;28;100488;-91
2024/02/19 00:35:36;;;;;;;33.58;3.85;;;;;;;12.50;63.30;102729.09;4973096;28;100607;-89
2024/02/19 00:38:03;;;;;;;32.60;5.03;;;;;;;12.47;63.32;102723.75;4971049;28;97028;-89
2024/02/19 00:40:28;;;;;;;21.05;3.85;;;;;;;12.45;63.33;102714.97;4971941;28;96997;-90
2024/02/19 00:42:54;;;;;;;29.98;3.80;;;;;;;12.45;63.41;102725.44;4976341;28;100040;-90
2024/02/19 00:45:19;;;;;;;20.30;3.63;;;;;;;12.45;63.31;102730.66;4975431;28;98990;-89
2024/02/19 00:47:45;;;;;;;30.48;4.57;;;;;;;12.44;63.50;102726.28;4994878;28;96856;-89
2024/02/19 00:50:10;;;;;;;21.90;3.20;;;;;;;12.43;63.24;102728.84;4978432;28;97058;-91
2024/02/19 00:52:40;;;;;;;34.47;4.15;;;;;;;12.42;63.34;102727.94;4979017;28;100140;-91
2024/02/19 00:55:07;;;;;;;28.70;3.65;;;;;;;12.44;63.46;102733.22;5013882;28;100592;-91
2024/02/19 00:57:32;;;;;;;30.10;4.03;;;;;;;12.44;63.58;102754.16;4996263;28;96852;-91
2024/02/19 00:59:58;;;;;;;28.35;4.10;;;;;;;12.44;63.53;102747.22;4994900;28;96855;-89
2024/02/19 01:02:24;;;;;;;32.47;4.38;;;;;;;12.45;63.55;102746.38;4992818;28;97604;-89
2024/02/19 01:04:53;;;;;;;32.08;4.38;;;;;;;12.45;63.55;102740.25;4977482;28;98757;-89
2024/02/19 01:07:21;;;;;;;30.38;3.78;;;;;;;12.45;63.39;102735.03;4994981;28;96970;-89
2024/02/19 01:09:48;;;;;;;37.85;4.53;;;;;;;12.44;63.63;102749.84;4980916;28;97010;-90
2024/02/19 01:12:15;;;;;;;30.15;3.80;;;;;;;12.44;63.52;102743.69;4975998;28;98889;-90
2024/02/19 01:14:42;;;;;;;28.08;3.30;;;;;;;12.45;63.54;102753.34;4979025;28;100399;-89
2024/02/19 01:17:08;;;;;;;25.75;3.63;;;;;;;12.44;63.66;102760.31;4994385;28;96874;-91
2024/02/19 01:19:34;;;;;;;28.85;3.75;;;;;;;12.44;63.43;102752.47;4976423;28;96809;-89
2024/02/19 01:22:00;;;;;;;41.13;3.75;;;;;;;12.45;63.48;102756.84;4992495;28;96821;-89
2024/02/19 01:24:26;;;;;;;30.17;4.55;;;;;;;12.47;63.59;102754.28;4991582;28;99772;-89
2024/02/19 01:26:51;;;;;;;28.63;4.50;;;;;;;12.47;63.58;102764.75;4975409;28;96917;-90
2024/02/19 01:29:17;;;;;;;28.90;4.25;;;;;;;12.48;63.49;102762.19;4976305;28;97394;-90
2024/02/19 01:31:43;;;;;;;26.65;3.45;;;;;;;12.49;63.52;102755.22;4992874;28;100479;-91
2024/02/19 01:34:09;;;;;;;31.95;3.33;;;;;;;12.48;63.59;102748.22;4975461;28;98527;-91
2024/02/19 01:36:34;;;;;;;26.65;3.50;;;;;;;12.48;63.56;102756.09;4993243;28;96996;-91
2024/02/19 01:39:01;;;;;;;30.55;3.40;;;;;;;12.49;63.49;102745.63;4993490;28;96964;-89
2024/02/19 01:41:26;;;;;;;26.27;3.17;;;;;;;12.49;63.48;102747.38;4992590;28;99905;-89
2024/02/19 01:43:52;;;;;;;25.38;3.70;;;;;;;12.47;63.47;102746.44;4993848;28;97613;-90
2024/02/19 01:46:18;;;;;;;29.40;3.53;;;;;;;12.48;63.62;102750.84;4976979;28;97085;-90
2024/02/19 01:48:44;;;;;;;32.38;4.35;;;;;;;12.47;63.52;102751.66;4993658;28;97172;-90
2024/02/19 01:51:10;;;;;;;29.75;3.30;;;;;;;12.47;63.64;102756.91;4977806;28;100197;-89
2024/02/19 01:53:37;;;;;;;26.30;4.07;;;;;;;12.47;63.44;102752.53;4976198;28;99015;-90
2024/02/19 01:56:04;;;;;;;28.83;4.13;;;;;;;12.47;63.51;102751.66;4995227;28;97325;-92
2024/02/19 01:58:29;;;;;;;31.60;4.13;;;;;;;12.46;63.63;102757.72;4977186;28;97103;-90
2024/02/19 02:00:58;;;;;;;27.77;3.78;;;;;;;12.46;63.54;102748.16;4977444;28;100629;-90
2024/02/19 02:03:24;;;;;;;27.02;3.63;;;;;;;12.46;63.72;102757.72;4976492;28;100008;-90
2024/02/19 02:05:50;;;;;;;26.52;3.20;;;;;;;12.46;63.52;102752.50;4994282;28;96942;-90
2024/02/19 02:08:16;;;;;;;20.40;3.08;;;;;;;12.45;63.44;102745.50;4994409;28;96883;-89
2024/02/19 02:10:42;;;;;;;22.85;4.32;;;;;;;12.46;63.65;102744.63;4979470;28;99949;-89
2024/02/19 02:13:08;;;;;;;24.25;4.32;;;;;;;12.45;63.55;102749.00;4995822;28;100072;-91
2024/02/19 02:15:35;;;;;;;24.30;4.40;;;;;;;12.46;63.54;102749.88;4978088;28;96864;-91
2024/02/19 02:18:01;;;;;;;25.83;3.80;;;;;;;12.46;63.64;102748.16;4992772;28;96847;-91
2024/02/19 02:20:27;;;;;;;27.48;4.50;;;;;;;12.46;63.55;102748.16;4976062;28;100195;-91
2024/02/19 02:22:52;;;;;;;31.63;5.30;;;;;;;12.47;63.63;102743.81;4992143;28;99308;-91
2024/02/19 02:25:18;;;;;;;35.63;4.30;;;;;;;12.47;63.40;102736.84;4974616;28;96771;-92
2024/02/19 02:27:44;;;;;;;25.70;4.38;;;;;;;12.47;63.56;102738.56;4980137;28;96831;-92
2024/02/19 02:30:10;;;;;;;28.13;4.10;;;;;;;12.49;63.60;102744.75;4974563;28;99247;-91
2024/02/19 02:32:35;;;;;;;24.42;4.07;;;;;;;12.48;63.74;102737.75;4996264;28;99966;-92
2024/02/19 02:35:02;;;;;;;27.50;3.70;;;;;;;12.47;63.66;102736.84;4978212;28;96695;-91
2024/02/19 02:37:30;;;;;;;25.33;4.32;;;;;;;12.48;63.69;102741.25;4993840;28;97361;-90
2024/02/19 02:39:56;;;;;;;23.10;3.97;;;;;;;12.48;63.66;102741.25;4976178;28;100302;-90
2024/02/19 02:42:21;;;;;;;32.72;3.55;;;;;;;12.50;63.57;102738.69;4977069;28;99182;-92
2024/02/19 02:44:47;;;;;;;31.05;4.93;;;;;;;12.49;63.54;102745.63;4976204;28;96810;-91
2024/02/19 02:47:12;;;;;;;29.55;4.68;;;;;;;12.50;63.74;102744.81;4992015;28;96988;-91
2024/02/19 02:49:38;;;;;;;24.02;4.47;;;;;;;12.50;63.73;102736.97;5005159;28;100916;-91
2024/02/19 02:52:03;;;;;;;30.63;4.75;;;;;;;12.51;63.65;102750.94;4975219;28;99852;-90
2024/02/19 02:54:29;;;;;;;27.92;3.92;;;;;;;12.52;63.66;102763.19;4991421;28;97086;-91
2024/02/19 02:56:54;;;;;;;21.25;4.90;;;;;;;12.52;63.64;102752.72;4977841;28;97102;-91
2024/02/19 02:59:20;;;;;;;15.80;3.75;;;;;;;12.54;63.76;102764.13;4990567;28;100857;-91
2024/02/19 03:01:45;;;;;;;31.55;4.45;;;;;;;12.56;63.73;102765.06;4975921;28;99670;-91
2024/02/19 03:04:11;;;;;;;26.77;3.50;;;;;;;12.58;63.60;102755.53;4991703;28;96893;-92
2024/02/19 03:06:36;;;;;;;29.08;3.72;;;;;;;12.58;63.40;102755.53;4978641;28;96883;-91
2024/02/19 03:09:03;;;;;;;29.75;4.13;;;;;;;12.56;63.14;102754.59;4977153;28;100310;-91
2024/02/19 03:11:30;;;;;;;28.05;5.00;;;;;;;12.52;63.57;102750.09;4992963;28;99732;-91
2024/02/19 03:13:56;;;;;;;26.23;5.00;;;;;;;12.50;63.55;102750.03;4994122;28;97304;-91
2024/02/19 03:16:21;;;;;;;22.90;3.30;;;;;;;12.48;63.76;102740.38;5004554;28;96779;-91
2024/02/19 03:18:47;;;;;;;25.05;4.20;;;;;;;12.48;63.57;102746.50;4992406;28;99814;-91
2024/02/19 03:21:15;;;;;;;32.13;4.25;;;;;;;12.46;63.47;102742.03;4976345;28;99384;-89
2024/02/19 03:23:59;;;;;;;24.48;4.57;;;;;;;12.42;63.46;102745.38;4976612;28;96849;-89
2024/02/19 03:26:25;;;;;;;27.27;3.83;;;;;;;12.44;63.51;102746.31;4979966;28;96997;-91
2024/02/19 03:28:51;;;;;;;21.77;3.45;;;;;;;12.44;63.58;102755.09;4993004;28;99878;-89
2024/02/19 03:31:18;;;;;;;18.88;3.88;;;;;;;12.43;63.68;102752.41;4993038;28;99056;-90
2024/02/19 03:33:44;;;;;;;23.95;3.42;;;;;;;12.43;63.70;102750.66;4993242;28;96917;-90
2024/02/19 03:36:09;;;;;;;19.95;3.38;;;;;;;12.44;63.62;102746.31;4977783;28;97532;-89
2024/02/19 03:38:36;;;;;;;28.50;4.18;;;;;;;12.43;63.50;102749.78;4977083;28;100570;-89
2024/02/19 03:41:04;;;;;;;26.20;3.50;;;;;;;12.43;63.64;102740.19;4975670;28;100136;-89
2024/02/19 03:43:31;;;;;;;27.10;4.45;;;;;;;12.43;63.62;102748.06;4977098;28;96971;-89
2024/02/19 03:46:05;;;;;;;25.05;3.08;;;;;;;12.43;63.50;102747.16;4977718;28;97811;-89
2024/02/19 03:48:33;;;;;;;23.25;4.40;;;;;;;12.43;63.79;102739.31;4973717;28;100555;-89
2024/02/19 03:50:59;;;;;;;20.05;4.15;;;;;;;12.44;63.63;102738.47;4977177;28;100052;-90
2024/02/19 03:53:24;;;;;;;25.45;4.70;;;;;;;12.44;63.67;102742.00;4975435;28;96923;-90
2024/02/19 03:55:50;;;;;;;26.13;3.75;;;;;;;12.44;63.65;102736.75;4979908;28;96922;-90
2024/02/19 03:58:16;;;;;;;29.92;3.65;;;;;;;12.45;63.71;102730.66;4977438;28;99805;-90
2024/02/19 04:00:41;;;;;;;23.15;3.40;;;;;;;12.47;63.82;102733.34;4974278;28;100706;-88
2024/02/19 04:03:07;;;;;;;18.95;3.88;;;;;;;12.48;63.60;102729.91;4974628;28;97025;-88
2024/02/19 04:05:32;;;;;;;21.38;4.05;;;;;;;12.48;63.28;102720.31;4989520;28;97111;-90
2024/02/19 04:07:58;;;;;;;22.98;3.50;;;;;;;12.47;63.69;102722.88;4991727;28;97778;-90
2024/02/19 04:10:23;;;;;;;25.73;3.75;;;;;;;12.48;63.61;102722.06;4975142;28;98732;-90
2024/02/19 04:12:49;;;;;;;28.50;4.57;;;;;;;12.49;63.50;102721.19;4991384;28;96924;-90
2024/02/19 04:15:14;;;;;;;26.63;3.83;;;;;;;12.49;63.56;102716.84;4975320;28;97105;-90
2024/02/19 04:17:40;;;;;;;24.30;4.18;;;;;;;12.51;63.40;102724.75;4992084;28;97620;-90
2024/02/19 04:20:06;;;;;;;24.45;3.50;;;;;;;12.52;63.67;102721.31;4974435;28;100400;-90
2024/02/19 04:22:32;;;;;;;17.85;3.00;;;;;;;12.54;63.60;102725.75;4992790;28;97634;-90
2024/02/19 04:25:00;;;;;;;23.20;3.55;;;;;;;12.56;63.55;102723.19;4974075;28;97007;-90
2024/02/19 04:27:26;;;;;;;19.60;3.80;;;;;;;12.55;63.47;102722.31;4973558;28;99937;-89
2024/02/19 04:29:51;;;;;;;23.17;4.20;;;;;;;12.55;63.40;102727.53;4977200;28;100272;-90
2024/02/19 04:32:16;;;;;;;19.83;4.18;;;;;;;12.56;63.34;102731.91;4978916;28;96827;-90
2024/02/19 04:34:42;;;;;;;22.83;3.75;;;;;;;12.56;63.43;102723.19;4981580;28;96848;-89
2024/02/19 04:37:08;;;;;;;22.77;4.05;;;;;;;12.54;63.62;102733.59;4973709;28;100603;-90
2024/02/19 04:39:33;;;;;;;16.35;3.38;;;;;;;12.54;63.50;102732.72;4975433;28;100302;-90
2024/02/19 04:42:00;;;;;;;23.65;3.60;;;;;;;12.54;63.37;102737.94;4993235;28;96887;-90
2024/02/19 04:44:26;;;;;;;25.85;4.38;;;;;;;12.52;63.59;102729.16;4994228;28;97010;-91
2024/02/19 04:46:51;;;;;;;24.27;4.25;;;;;;;12.50;63.41;102726.50;4973798;28;100292;-90
2024/02/19 04:49:17;;;;;;;27.90;3.78;;;;;;;12.52;63.58;102739.63;4977377;28;99666;-92
2024/02/19 04:51:42;;;;;;;21.17;3.90;;;;;;;12.52;63.69;102739.63;4978257;28;96805;-91
2024/02/19 04:54:08;;;;;;;18.90;3.78;;;;;;;12.52;63.62;102737.03;4980257;28;96887;-91
2024/02/19 04:56:33;;;;;;;25.38;4.15;;;;;;;12.53;63.60;102736.16;4995299;28;99214;-90
2024/02/19 04:58:59;;;;;;;17.40;3.53;;;;;;;12.52;63.43;102743.13;4994483;28;97837;-90
2024/02/19 05:01:30;;;;;;;27.80;3.47;;;;;;;12.50;63.48;102733.47;4977606;28;97269;-91
2024/02/19 05:03:56;;;;;;;19.45;2.95;;;;;;;12.49;63.46;102723.81;5007625;28;97234;-91
2024/02/19 05:06:22;;;;;;;25.15;3.47;;;;;;;12.49;63.58;102732.53;4992143;28;100912;-90
2024/02/19 05:08:47;;;;;;;23.85;3.75;;;;;;;12.50;63.55;102731.72;4993656;28;100613;-90
2024/02/19 05:11:14;;;;;;;17.70;2.88;;;;;;;12.52;63.73;102726.53;4992893;28;96871;-90
2024/02/19 05:13:40;;;;;;;18.40;3.05;;;;;;;12.51;63.42;102727.38;4996130;28;96931;-90
2024/02/19 05:16:06;;;;;;;20.42;3.58;;;;;;;12.51;63.64;102723.06;4993782;28;100362;-90
2024/02/19 05:18:32;;;;;;;17.08;3.13;;;;;;;12.53;63.48;102715.22;4974392;28;100106;-89
2024/02/19 05:20:57;;;;;;;15.93;3.08;;;;;;;12.55;63.52;102721.44;4992290;28;97164;-90
2024/02/19 05:23:23;;;;;;;24.85;4.20;;;;;;;12.56;63.70;102715.34;4976614;28;96843;-90
2024/02/19 05:25:48;;;;;;;19.00;2.90;;;;;;;12.56;63.62;102713.59;4977280;28;101030;-90
2024/02/19 05:28:14;;;;;;;21.25;3.28;;;;;;;12.57;63.75;102722.38;4994960;28;97887;-90
2024/02/19 05:30:39;;;;;;;19.10;3.63;;;;;;;12.58;63.49;102724.13;4995248;28;96863;-91
2024/02/19 05:33:06;;;;;;;18.88;3.70;;;;;;;12.58;63.56;102718.88;4994707;28;97084;-90
2024/02/19 05:35:31;;;;;;;19.80;3.50;;;;;;;12.59;63.75;102718.06;4997884;28;97908;-89
2024/02/19 05:37:57;;;;;;;19.67;3.95;;;;;;;12.61;63.74;102713.78;4996651;28;97478;-90
2024/02/19 05:40:22;;;;;;;15.05;2.75;;;;;;;12.63;63.63;102717.31;4987246;28;96780;-90
2024/02/19 05:42:48;;;;;;;12.15;3.30;;;;;;;12.64;63.55;102723.44;4979694;28;96908;-89
2024/02/19 05:45:13;;;;;;;23.42;3.95;;;;;;;12.65;63.85;102723.50;4980832;28;100636;-90
2024/02/19 05:47:39;;;;;;;17.63;3.78;;;;;;;12.66;63.37;102721.78;4980090;28;100237;-90
2024/02/19 05:50:05;;;;;;;17.45;4.07;;;;;;;12.68;63.56;102721.00;4981800;28;96682;-89
2024/02/19 05:52:30;;;;;;;18.80;4.00;;;;;;;12.69;63.46;102719.25;4980409;28;96786;-91
2024/02/19 05:55:20;;;;;;;18.75;3.25;;;;;;;12.71;63.72;102725.47;5000196;28;98817;-90
2024/02/19 05:57:46;;;;;;;18.58;3.42;;;;;;;12.71;63.62;102718.50;4995322;28;100541;-91
2024/02/19 06:00:13;;;;;;;19.48;3.65;;;;;;;12.74;63.50;102720.31;5015907;28;96884;-91
2024/02/19 06:02:43;;;;;;;19.00;3.53;;;;;;;12.73;63.32;102722.03;5000016;28;96849;-91
2024/02/19 06:05:10;;;;;;;13.73;2.95;;;;;;;12.75;63.79;102724.72;4987677;28;100595;-91
2024/02/19 06:07:36;;;;;;;14.30;4.00;;;;;;;12.77;63.37;102728.28;5001605;28;99874;-93
2024/02/19 06:10:02;;;;;;;11.75;3.22;;;;;;;12.78;63.58;102719.59;4984521;28;96827;-93
2024/02/19 06:12:31;;;;;;;30.83;5.15;;;;;;;12.78;63.88;102719.59;4984177;28;97094;-90
2024/02/19 06:14:56;;;;;;;14.82;3.83;;;;;;;12.81;63.60;102716.16;4998994;28;96887;-91
2024/02/19 06:17:22;;;;;;;17.70;4.15;;;;;;;12.81;63.50;102710.94;4997919;28;99460;-91
2024/02/19 06:19:47;;;;;;;23.35;4.40;;;;;;;12.81;63.67;102711.81;4979447;28;96822;-91
2024/02/19 06:22:14;;;;;;;18.27;4.60;;;;;;;12.82;63.64;102702.25;4996943;28;97244;-91
2024/02/19 06:24:40;;;;;;;21.05;4.13;;;;;;;12.84;63.59;102708.44;4981263;28;101778;-93
2024/02/19 06:27:08;;;;;;;13.02;3.15;;;;;;;12.86;63.49;102701.50;4982645;28;100648;-94
2024/02/19 06:29:34;;;;;;;19.83;3.55;;;;;;;12.89;63.72;102699.00;4999887;28;96808;-94
2024/02/19 06:32:00;;;;;;;16.40;3.30;;;;;;;12.91;63.64;102705.16;4984674;28;96858;-94
2024/02/19 06:34:28;;;;;;;17.73;4.65;;;;;;;12.92;63.45;102704.31;4983509;28;100531;-95
2024/02/19 06:36:54;;;;;;;16.52;3.65;;;;;;;12.91;63.48;102695.56;4976139;28;99362;-93
2024/02/19 06:39:20;;;;;;;14.60;4.45;;;;;;;12.93;63.34;102695.63;5003744;28;96915;-93
2024/02/19 06:41:46;;;;;;;16.10;3.00;;;;;;;12.93;63.54;102698.25;4981591;28;96876;-93
2024/02/19 06:44:11;;;;;;;16.00;4.38;;;;;;;12.94;63.37;102707.84;4980785;28;100381;-94
2024/02/19 06:46:37;;;;;;;12.35;3.10;;;;;;;12.91;63.26;102700.81;4980353;28;99500;-93
2024/02/19 06:49:03;;;;;;;17.27;3.63;;;;;;;12.93;63.26;102711.34;4981823;28;96853;-94
2024/02/19 06:51:28;;;;;;;12.55;3.10;;;;;;;12.92;63.20;102713.06;5001699;28;97047;-93
2024/02/19 06:53:54;;;;;;;17.02;3.42;;;;;;;12.90;63.12;102711.22;5001585;28;100314;-94
2024/02/19 06:56:19;;;;;;;18.17;3.13;;;;;;;12.88;63.44;102716.41;4984956;28;96656;-94
2024/02/19 06:58:45;;;;;;;13.90;3.22;;;;;;;12.89;63.35;102719.94;4983011;28;96877;-93
2024/02/19 07:01:13;;;;;;;16.70;4.30;;;;;;;12.87;63.39;102721.59;4982001;28;97066;-92
2024/02/19 07:03:39;;;;;;;18.60;3.47;;;;;;;12.85;63.39;102708.47;4992722;28;97994;-92
2024/02/19 07:06:06;;;;;;;18.73;3.80;;;;;;;12.86;63.51;102712.84;4994080;28;98947;-87
2024/02/19 07:08:31;;;;;;;16.33;4.55;;;;;;;12.86;63.49;102711.97;4974097;28;96893;-87
2024/02/19 07:10:57;;;;;;;15.57;4.70;;;;;;;12.87;63.61;102714.66;4976375;28;96836;-91
2024/02/19 07:13:22;;;;;;;17.33;4.78;;;;;;;12.90;63.68;102719.09;4994087;28;99213;-91
2024/02/19 07:15:48;;;;;;;15.30;4.85;;;;;;;12.90;63.29;102719.97;4995267;28;100063;-91
2024/02/19 07:18:13;;;;;;;18.95;4.10;;;;;;;12.89;63.45;102717.31;4982453;28;96860;-91
2024/02/19 07:20:39;;;;;;;14.70;4.57;;;;;;;12.90;63.52;102719.97;4997616;28;96855;-92
2024/02/19 07:23:05;;;;;;;21.13;4.90;;;;;;;12.93;63.72;102716.56;4982580;28;101575;-91
2024/02/19 07:25:31;;;;;;;17.52;4.82;;;;;;;12.95;63.82;102714.88;5000076;28;98743;-91
2024/02/19 07:27:57;;;;;;;21.38;4.72;;;;;;;12.99;63.80;102705.41;4992313;28;96730;-91
2024/02/19 07:30:23;;;;;;;20.35;4.70;;;;;;;13.00;63.64;102702.84;4997896;28;96694;-92
2024/02/19 07:32:48;;;;;;;19.58;5.07;;;;;;;13.01;63.78;102704.63;4990142;28;99830;-91
2024/02/19 07:35:14;;;;;;;17.42;4.15;;;;;;;13.02;63.77;102714.25;4990946;28;99695;-92
2024/02/19 07:37:39;;;;;;;18.67;4.95;;;;;;;13.06;63.81;102707.38;4992541;28;96745;-93
2024/02/19 07:40:07;;;;;;;14.57;4.28;;;;;;;13.08;63.78;102719.69;4985035;28;96857;-92
2024/02/19 07:42:32;;;;;;;14.70;4.32;;;;;;;13.10;63.89;102715.41;4979072;28;100123;-93
2024/02/19 07:44:58;;;;;;;16.75;4.05;;;;;;;13.13;63.56;102712.84;4983651;28;98687;-94
2024/02/19 07:47:24;;;;;;;16.95;4.30;;;;;;;13.17;63.64;102700.72;4986511;28;96682;-96
2024/02/19 07:49:50;;;;;;;14.85;3.88;;;;;;;13.22;63.64;102695.66;5002825;28;96617;-96
2024/02/19 07:52:18;;;;;;;14.57;4.57;;;;;;;13.23;63.64;102706.19;5036416;28;96800;-96
2024/02/19 07:54:44;;;;;;;15.40;4.93;;;;;;;13.28;63.98;102696.75;4998264;28;100238;-95
2024/02/19 07:57:09;;;;;;;18.77;4.63;;;;;;;13.34;64.02;102701.31;5011002;28;96628;-95
2024/02/19 07:59:36;;;;;;;14.38;3.97;;;;;;;13.40;63.86;102714.59;5001954;28;96554;-94
2024/02/19 08:02:01;;;;;;;15.30;5.47;;;;;;;13.45;63.73;102707.75;4995253;28;98771;-94
2024/02/19 08:04:27;;;;;;;13.13;5.47;;;;;;;13.51;63.90;102710.59;5053061;27;100738;-94
2024/02/19 08:06:54;;;;;;;15.40;5.97;;;;;;;13.58;63.91;102718.63;4995258;28;96794;-93
2024/02/19 08:09:19;;;;;;;18.88;5.13;;;;;;;13.63;63.72;102719.66;5016379;28;96725;-93
2024/02/19 08:11:45;;;;;;;15.43;5.45;;;;;;;13.67;63.70;102711.03;5012463;28;99053;-94
2024/02/19 08:14:14;;;;;;;18.27;5.18;;;;;;;13.70;63.63;102717.25;5002000;28;99161;-94
2024/02/19 08:16:39;;;;;;;15.93;5.15;;;;;;;13.76;63.54;102720.91;5000819;28;96761;-94
2024/02/19 08:19:05;;;;;;;18.60;6.25;;;;;;;13.78;63.65;102714.88;5001078;28;96928;-95
2024/02/19 08:21:31;;;;;;;21.77;5.35;;;;;;;13.81;63.60;102728.06;4984122;28;99321;-94
2024/02/19 08:24:02;;;;;;;18.52;5.68;;;;;;;13.88;63.53;102734.38;5001995;28;96690;-95
2024/02/19 08:26:28;;;;;;;18.17;5.95;;;;;;;13.89;63.36;102734.41;5003705;28;96836;-92
2024/02/19 08:28:54;;;;;;;13.77;5.57;;;;;;;13.89;63.10;102736.16;5013589;28;97064;-91
2024/02/19 08:31:19;;;;;;;16.20;5.47;;;;;;;13.88;63.04;102740.50;5003977;28;97877;-90
2024/02/19 08:33:45;;;;;;;21.27;5.15;;;;;;;13.87;62.69;102741.38;5000349;28;97335;-91
2024/02/19 08:36:10;;;;;;;16.38;4.63;;;;;;;13.85;62.66;102734.28;5000138;28;96819;-91
2024/02/19 08:38:36;;;;;;;13.30;4.10;;;;;;;13.82;62.80;102742.06;4991246;28;96852;-91
2024/02/19 08:41:01;;;;;;;15.82;4.75;;;;;;;13.77;62.87;102739.31;5000792;28;96854;-90
2024/02/19 08:43:27;;;;;;;13.25;5.03;;;;;;;13.77;62.43;102738.44;4980908;28;100105;-89
2024/02/19 08:45:53;;;;;;;19.77;4.97;;;;;;;13.74;62.48;102733.97;4979965;28;96974;-89
2024/02/19 08:48:18;;;;;;;20.10;4.65;;;;;;;13.71;62.77;102736.53;4983696;28;96849;-91
2024/02/19 08:50:45;;;;;;;17.23;5.53;;;;;;;13.70;62.71;102743.47;4995384;28;100184;-89
2024/02/19 08:53:11;;;;;;;21.20;4.43;;;;;;;13.69;62.70;102739.09;4988506;28;100068;-89
2024/02/19 08:55:36;;;;;;;21.33;5.03;;;;;;;13.68;62.94;102725.94;4996483;28;96815;-90
2024/02/19 08:58:02;;;;;;;17.83;5.03;;;;;;;13.69;62.90;102736.47;5005240;28;96846;-93
2024/02/19 09:00:30;;;;;;;18.63;5.65;;;;;;;13.71;62.93;102739.13;4997773;28;99639;-91
2024/02/19 09:02:58;;;;;;;18.05;5.78;;;;;;;13.73;62.79;102734.81;4997858;28;99478;-96
2024/02/19 09:05:23;;;;;;;22.52;6.00;;;;;;;13.75;62.78;102738.38;4992053;28;96953;-89
2024/02/19 09:07:49;;;;;;;16.88;4.53;;;;;;;13.76;63.00;102740.16;5008083;28;97075;-90
2024/02/19 09:10:15;;;;;;;23.30;5.03;;;;;;;13.77;62.85;102735.81;4987168;28;100446;-88
2024/02/19 09:12:40;;;;;;;18.88;5.60;;;;;;;13.78;62.80;102737.56;4985156;28;100600;-89
2024/02/19 09:15:06;;;;;;;24.15;5.47;;;;;;;13.77;62.84;102731.44;5003438;28;96789;-89
2024/02/19 09:17:31;;;;;;;18.38;4.95;;;;;;;13.76;62.79;102729.69;5003513;28;97084;-91
2024/02/19 09:19:57;;;;;;;14.98;5.22;;;;;;;13.78;63.03;102741.09;4993976;28;99328;-89
2024/02/19 09:22:23;;;;;;;20.25;4.47;;;;;;;13.79;62.59;102734.13;4995802;28;96881;-90
2024/02/19 09:24:50;;;;;;;19.70;5.85;;;;;;;13.82;62.78;102737.72;4977370;28;96749;-89
2024/02/19 09:27:15;;;;;;;22.00;4.15;;;;;;;13.82;62.68;102732.47;4976609;28;96826;-89
2024/02/19 09:29:45;;;;;;;16.30;5.03;;;;;;;13.87;63.29;102732.63;4984273;28;100691;-90
2024/02/19 09:32:10;;;;;;;;;;;;;;;13.89;63.19;102730.91;4981285;28;100289;-89
2024/02/19 09:34:36;;;;;;;16.50;4.40;;;;;;;13.95;62.81;102738.06;4984460;28;96959;-93
2024/02/19 09:37:02;;;;;;;13.48;4.40;;;;;;;13.95;62.70;102730.19;4981514;28;97015;-91
2024/02/19 09:39:32;;;;;;;18.45;4.82;;;;;;;13.94;62.65;102725.78;5001580;28;100803;-92
2024/02/19 09:42:13;;;;;;;17.90;4.93;;;;;;;13.94;63.06;102729.31;4982432;28;98656;-90
2024/02/19 09:44:38;;;;;;;15.55;4.28;;;;;;;13.98;62.61;102731.19;4998154;28;96800;-91
2024/02/19 09:47:07;;;;;;;16.45;4.70;;;;;;;13.98;62.49;102730.31;5015484;28;96876;-92
2024/02/19 09:49:32;;;;;;;15.65;4.68;;;;;;;13.99;62.33;102719.84;4982686;28;100550;-91
2024/02/19 09:52:09;;;;;;;17.00;3.75;;;;;;;13.99;62.70;102725.09;4995729;28;100451;-92
2024/02/19 09:54:35;;;;;;;11.05;3.80;;;;;;;14.02;62.13;102725.16;4993018;28;96881;-89
2024/02/19 09:57:02;;;;;;;12.25;4.43;;;;;;;14.02;62.34;102725.16;4989997;28;97370;-88
2024/02/19 09:59:28;;;;;;;14.82;4.00;;;;;;;14.02;62.08;102725.16;4997295;28;100881;-89
2024/02/19 10:01:54;;;;;;;17.88;4.95;;;;;;;14.03;62.12;102721.72;4997775;28;100461;-89
2024/02/19 10:04:20;;;;;;;15.43;3.42;;;;;;;14.04;62.25;102714.72;4968229;28;96744;-89
2024/02/19 10:06:46;;;;;;;14.73;4.70;;;;;;;14.05;62.09;102713.88;4985598;28;96799;-92
2024/02/19 10:09:11;;;;;;;15.50;4.03;;;;;;;14.07;62.21;102701.69;5018605;28;100275;-92
2024/02/19 10:11:38;;;;;;;19.05;4.13;;;;;;;14.11;62.00;102713.16;4986017;28;99711;-92
2024/02/19 10:14:04;;;;;;;18.42;3.45;;;;;;;14.13;62.02;102703.59;5004855;28;96890;-91
2024/02/19 10:16:35;;;;;;;11.35;4.10;;;;;;;14.12;61.73;102704.41;4978401;28;97378;-91
2024/02/19 10:19:04;;;;;;;14.32;3.63;;;;;;;14.13;61.79;102695.72;5011269;28;100650;-90
2024/02/19 10:21:30;;;;;;;14.75;4.07;;;;;;;14.14;62.07;102700.13;4995299;28;100182;-90
2024/02/19 10:23:56;;;;;;;13.43;3.65;;;;;;;14.17;61.81;102702.81;4996823;28;96838;-91
2024/02/19 10:26:21;;;;;;;11.23;3.30;;;;;;;14.19;62.04;102699.41;4999114;28;96959;-91
2024/02/19 10:28:47;;;;;;;15.32;3.63;;;;;;;14.22;61.87;102693.34;4994992;28;100100;-91
2024/02/19 10:31:13;;;;;;;14.18;3.88;;;;;;;14.25;62.19;102691.69;4982759;28;100832;-91
2024/02/19 10:33:41;;;;;;;14.50;3.22;;;;;;;14.31;61.80;102690.06;4981097;28;96792;-92
2024/02/19 10:36:09;;;;;;;13.52;3.50;;;;;;;14.33;61.70;102688.38;5000102;28;96842;-93
2024/02/19 10:38:34;;;;;;;12.95;4.38;;;;;;;14.33;61.69;102681.41;4984050;28;98351;-93
2024/02/19 10:41:00;;;;;;;15.35;4.53;;;;;;;14.37;61.60;102680.63;4990310;28;99295;-93
2024/02/19 10:43:25;;;;;;;15.70;4.28;;;;;;;14.39;61.57;102681.56;4994208;28;96605;-93
2024/02/19 10:45:52;;;;;;;19.55;4.75;;;;;;;14.39;61.68;102680.69;4980407;28;96973;-91
2024/02/19 10:48:18;;;;;;;11.07;3.40;;;;;;;14.41;61.53;102677.22;4978239;28;99271;-92
2024/02/19 10:50:47;;;;;;;14.43;4.13;;;;;;;14.43;61.84;102666.78;4993821;28;98267;-92
2024/02/19 10:53:13;;;;;;;13.57;3.97;;;;;;;14.47;61.75;102669.53;4973735;28;96856;-91
2024/02/19 10:55:39;;;;;;;15.93;3.78;;;;;;;14.54;61.65;102670.53;4975640;28;96936;-90
2024/02/19 10:58:14;;;;;;;14.77;4.22;;;;;;;14.57;61.48;102675.00;4983060;28;100264;-93
2024/02/19 11:00:42;;;;;;;15.85;4.55;;;;;;;14.59;61.55;102668.97;4977663;28;98351;-93
2024/02/19 11:03:15;;;;;;;17.42;3.40;;;;;;;14.63;61.51;102656.78;4988010;28;96864;-93
2024/02/19 11:05:43;;;;;;;17.50;3.63;;;;;;;14.66;61.34;102656.88;4977803;28;96877;-91
2024/02/19 11:08:23;;;;;;;14.35;4.07;;;;;;;14.68;61.54;102654.28;4979524;28;100386;-91
2024/02/19 11:10:54;;;;;;;11.68;3.80;;;;;;;14.74;61.37;102639.59;4975534;28;99464;-94